sensor_id;sensor_type;location;lat;lon;timestamp;pressure;altitude;pressure_sealevel;temperature;humidity
37170;BME280;23062;13.952;100.608;2023-05-23T00:03:21;1009.01;;;33.32;54.42
37170;BME280;23062;13.952;100.608;2023-05-23T00:07:54;1009.08;;;33.25;55.27
37170;BME280;23062;13.952;100.608;2023-05-23T00:12:20;1009.15;;;33.23;55.64
37170;BME280;23062;13.952;100.608;2023-05-23T00:16:49;1009.26;;;33.22;55.69
37170;BME280;23062;13.952;100.608;2023-05-23T00:21:16;1009.29;;;33.22;55.68
37170;BME280;23062;13.952;100.608;2023-05-23T00:25:42;1009.39;;;33.20;55.68
37170;BME280;23062;13.952;100.608;2023-05-23T00:30:10;1009.43;;;33.18;55.65
37170;BME280;23062;13.952;100.608;2023-05-23T00:34:38;1009.56;;;33.17;55.67
37170;BME280;23062;13.952;100.608;2023-05-23T00:39:05;1009.66;;;33.17;55.47
37170;BME280;23062;13.952;100.608;2023-05-23T00:43:30;1009.71;;;33.16;55.42
37170;BME280;23062;13.952;100.608;2023-05-23T00:48:04;1009.69;;;33.10;55.61
37170;BME280;23062;13.952;100.608;2023-05-23T00:52:40;1009.75;;;33.19;55.20
37170;BME280;23062;13.952;100.608;2023-05-23T00:57:06;1009.86;;;33.09;55.36
37170;BME280;23062;13.952;100.608;2023-05-23T01:01:33;1009.93;;;33.12;55.75
37170;BME280;23062;13.952;100.608;2023-05-23T01:06:02;1009.89;;;33.15;55.39
37170;BME280;23062;13.952;100.608;2023-05-23T01:10:36;1009.98;;;33.18;55.35
37170;BME280;23062;13.952;100.608;2023-05-23T01:15:09;1010.06;;;33.20;55.49
37170;BME280;23062;13.952;100.608;2023-05-23T01:24:35;1010.06;;;33.20;55.08
37170;BME280;23062;13.952;100.608;2023-05-23T01:33:47;1010.06;;;33.23;54.65
37170;BME280;23062;13.952;100.608;2023-05-23T01:38:13;1010.06;;;33.28;54.58
37170;BME280;23062;13.952;100.608;2023-05-23T01:42:40;1010.06;;;33.30;54.92
37170;BME280;23062;13.952;100.608;2023-05-23T01:47:07;1010.02;;;33.36;54.57
37170;BME280;23062;13.952;100.608;2023-05-23T01:51:34;1010.08;;;33.36;54.71
37170;BME280;23062;13.952;100.608;2023-05-23T01:56:10;1010.14;;;33.44;54.61
37170;BME280;23062;13.952;100.608;2023-05-23T02:00:37;1010.20;;;33.44;54.31
37170;BME280;23062;13.952;100.608;2023-05-23T02:05:11;1010.30;;;33.47;54.08
37170;BME280;23062;13.952;100.608;2023-05-23T02:09:36;1010.31;;;33.47;53.97
37170;BME280;23062;13.952;100.608;2023-05-23T02:14:03;1010.36;;;33.52;53.78
37170;BME280;23062;13.952;100.608;2023-05-23T02:18:30;1010.28;;;33.57;53.91
37170;BME280;23062;13.952;100.608;2023-05-23T02:23:04;1010.28;;;33.59;53.86
37170;BME280;23062;13.952;100.608;2023-05-23T02:27:32;1010.31;;;33.62;53.61
37170;BME280;23062;13.952;100.608;2023-05-23T02:31:59;1010.30;;;33.65;53.68
37170;BME280;23062;13.952;100.608;2023-05-23T02:36:28;1010.29;;;33.67;53.90
37170;BME280;23062;13.952;100.608;2023-05-23T02:40:56;1010.28;;;33.73;53.63
37170;BME280;23062;13.952;100.608;2023-05-23T02:45:22;1010.29;;;33.77;53.63
37170;BME280;23062;13.952;100.608;2023-05-23T02:49:50;1010.23;;;33.74;53.54
37170;BME280;23062;13.952;100.608;2023-05-23T02:54:16;1010.15;;;33.76;53.34
37170;BME280;23062;13.952;100.608;2023-05-23T02:58:43;1010.26;;;33.76;53.23
37170;BME280;23062;13.952;100.608;2023-05-23T03:03:11;1010.17;;;33.78;53.29
37170;BME280;23062;13.952;100.608;2023-05-23T03:07:38;1010.08;;;33.80;52.98
37170;BME280;23062;13.952;100.608;2023-05-23T03:12:20;1010.03;;;33.80;53.15
37170;BME280;23062;13.952;100.608;2023-05-23T03:16:55;1010.01;;;33.83;53.02
37170;BME280;23062;13.952;100.608;2023-05-23T03:21:20;1009.93;;;33.83;52.59
37170;BME280;23062;13.952;100.608;2023-05-23T03:25:46;1009.92;;;33.84;52.20
37170;BME280;23062;13.952;100.608;2023-05-23T03:30:16;1009.90;;;33.84;52.05
37170;BME280;23062;13.952;100.608;2023-05-23T03:34:43;1009.91;;;33.90;52.09
37170;BME280;23062;13.952;100.608;2023-05-23T03:39:17;1009.79;;;33.89;51.95
37170;BME280;23062;13.952;100.608;2023-05-23T03:43:51;1009.81;;;33.89;52.06
37170;BME280;23062;13.952;100.608;2023-05-23T03:48:17;1009.78;;;33.95;51.94
37170;BME280;23062;13.952;100.608;2023-05-23T03:52:51;1009.77;;;33.98;51.79
37170;BME280;23062;13.952;100.608;2023-05-23T03:57:26;1009.67;;;33.98;51.97
37170;BME280;23062;13.952;100.608;2023-05-23T04:01:53;1009.72;;;34.02;52.05
37170;BME280;23062;13.952;100.608;2023-05-23T04:06:28;1009.80;;;34.06;52.12
37170;BME280;23062;13.952;100.608;2023-05-23T04:10:55;1009.78;;;34.08;52.18
37170;BME280;23062;13.952;100.608;2023-05-23T04:15:24;1009.79;;;34.11;52.10
37170;BME280;23062;13.952;100.608;2023-05-23T04:19:51;1009.76;;;34.10;51.90
37170;BME280;23062;13.952;100.608;2023-05-23T04:24:16;1009.68;;;34.14;51.80
37170;BME280;23062;13.952;100.608;2023-05-23T04:28:52;1009.56;;;34.11;51.82
37170;BME280;23062;13.952;100.608;2023-05-23T04:33:18;1009.51;;;34.14;51.69
37170;BME280;23062;13.952;100.608;2023-05-23T04:37:46;1009.47;;;34.16;51.83
37170;BME280;23062;13.952;100.608;2023-05-23T04:42:13;1009.40;;;34.18;51.75
37170;BME280;23062;13.952;100.608;2023-05-23T04:46:39;1009.37;;;34.21;51.52
37170;BME280;23062;13.952;100.608;2023-05-23T04:51:05;1009.32;;;34.23;51.17
37170;BME280;23062;13.952;100.608;2023-05-23T04:55:41;1009.17;;;34.25;51.36
37170;BME280;23062;13.952;100.608;2023-05-23T05:00:08;1009.12;;;34.24;51.29
37170;BME280;23062;13.952;100.608;2023-05-23T05:04:42;1008.92;;;34.24;51.01
37170;BME280;23062;13.952;100.608;2023-05-23T05:09:15;1008.88;;;34.26;51.05
37170;BME280;23062;13.952;100.608;2023-05-23T05:13:48;1008.90;;;34.27;50.67
37170;BME280;23062;13.952;100.608;2023-05-23T05:18:17;1008.70;;;34.27;50.64
37170;BME280;23062;13.952;100.608;2023-05-23T05:22:55;1008.61;;;34.34;50.46
37170;BME280;23062;13.952;100.608;2023-05-23T05:27:24;1008.44;;;34.33;50.84
37170;BME280;23062;13.952;100.608;2023-05-23T05:31:49;1008.38;;;34.40;50.56
37170;BME280;23062;13.952;100.608;2023-05-23T05:36:20;1008.28;;;34.42;49.74
37170;BME280;23062;13.952;100.608;2023-05-23T05:40:54;1008.20;;;34.44;52.83
37170;BME280;23062;13.952;100.608;2023-05-23T05:45:20;1008.08;;;34.28;49.88
37170;BME280;23062;13.952;100.608;2023-05-23T05:49:53;1008.00;;;34.31;49.61
37170;BME280;23062;13.952;100.608;2023-05-23T05:54:20;1007.89;;;34.32;49.75
37170;BME280;23062;13.952;100.608;2023-05-23T05:58:45;1007.80;;;34.36;49.78
37170;BME280;23062;13.952;100.608;2023-05-23T06:03:21;1007.67;;;34.40;48.85
37170;BME280;23062;13.952;100.608;2023-05-23T06:07:56;1007.58;;;34.44;48.37
37170;BME280;23062;13.952;100.608;2023-05-23T06:12:25;1007.44;;;34.50;47.96
37170;BME280;23062;13.952;100.608;2023-05-23T06:16:53;1007.35;;;34.59;47.37
37170;BME280;23062;13.952;100.608;2023-05-23T06:21:19;1007.24;;;34.54;47.66
37170;BME280;23062;13.952;100.608;2023-05-23T06:25:45;1007.08;;;34.56;47.59
37170;BME280;23062;13.952;100.608;2023-05-23T06:30:18;1006.94;;;34.57;47.65
37170;BME280;23062;13.952;100.608;2023-05-23T06:34:44;1006.88;;;34.60;47.06
37170;BME280;23062;13.952;100.608;2023-05-23T06:39:11;1006.86;;;34.59;47.26
37170;BME280;23062;13.952;100.608;2023-05-23T06:43:45;1006.84;;;34.59;47.20
37170;BME280;23062;13.952;100.608;2023-05-23T06:48:13;1006.66;;;34.61;47.40
37170;BME280;23062;13.952;100.608;2023-05-23T06:52:40;1006.64;;;34.63;47.05
37170;BME280;23062;13.952;100.608;2023-05-23T06:57:13;1006.58;;;34.66;47.13
37170;BME280;23062;13.952;100.608;2023-05-23T07:01:39;1006.49;;;34.68;46.91
37170;BME280;23062;13.952;100.608;2023-05-23T07:06:12;1006.38;;;34.68;47.21
37170;BME280;23062;13.952;100.608;2023-05-23T07:10:39;1006.22;;;34.69;47.09
37170;BME280;23062;13.952;100.608;2023-05-23T07:15:16;1006.10;;;34.70;47.21
37170;BME280;23062;13.952;100.608;2023-05-23T07:19:50;1006.04;;;34.69;47.34
37170;BME280;23062;13.952;100.608;2023-05-23T07:24:18;1006.09;;;34.71;47.32
37170;BME280;23062;13.952;100.608;2023-05-23T07:28:52;1006.12;;;34.71;47.42
37170;BME280;23062;13.952;100.608;2023-05-23T07:33:17;1006.17;;;34.74;47.50
37170;BME280;23062;13.952;100.608;2023-05-23T07:37:51;1006.17;;;34.78;47.37
37170;BME280;23062;13.952;100.608;2023-05-23T07:42:17;1006.08;;;34.78;47.62
37170;BME280;23062;13.952;100.608;2023-05-23T07:46:42;1006.12;;;34.81;47.50
37170;BME280;23062;13.952;100.608;2023-05-23T07:51:15;1006.16;;;34.84;47.40
37170;BME280;23062;13.952;100.608;2023-05-23T07:55:50;1006.02;;;34.85;47.40
37170;BME280;23062;13.952;100.608;2023-05-23T08:00:16;1005.93;;;34.89;47.64
37170;BME280;23062;13.952;100.608;2023-05-23T08:04:42;1005.89;;;34.90;47.89
37170;BME280;23062;13.952;100.608;2023-05-23T08:09:09;1005.79;;;34.91;47.87
37170;BME280;23062;13.952;100.608;2023-05-23T08:13:34;1005.75;;;34.97;47.96
37170;BME280;23062;13.952;100.608;2023-05-23T08:18:07;1005.75;;;34.96;48.07
37170;BME280;23062;13.952;100.608;2023-05-23T08:22:33;1005.86;;;34.96;48.52
37170;BME280;23062;13.952;100.608;2023-05-23T08:26:59;1005.71;;;34.97;48.69
37170;BME280;23062;13.952;100.608;2023-05-23T08:31:29;1005.65;;;34.96;48.59
37170;BME280;23062;13.952;100.608;2023-05-23T08:36:04;1005.67;;;34.97;48.69
37170;BME280;23062;13.952;100.608;2023-05-23T08:40:31;1005.75;;;34.97;49.50
37170;BME280;23062;13.952;100.608;2023-05-23T08:44:57;1005.71;;;34.98;48.86
37170;BME280;23062;13.952;100.608;2023-05-23T08:49:22;1005.60;;;34.98;48.45
37170;BME280;23062;13.952;100.608;2023-05-23T08:53:49;1005.49;;;34.98;48.36
37170;BME280;23062;13.952;100.608;2023-05-23T08:58:19;1005.45;;;35.00;48.21
37170;BME280;23062;13.952;100.608;2023-05-23T09:02:52;1005.60;;;35.00;47.82
37170;BME280;23062;13.952;100.608;2023-05-23T09:07:28;1005.79;;;35.00;47.47
37170;BME280;23062;13.952;100.608;2023-05-23T09:12:02;1005.66;;;35.01;47.45
37170;BME280;23062;13.952;100.608;2023-05-23T09:16:32;1005.59;;;35.03;47.36
37170;BME280;23062;13.952;100.608;2023-05-23T09:21:02;1005.63;;;35.02;46.90
37170;BME280;23062;13.952;100.608;2023-05-23T09:25:28;1005.63;;;35.05;47.35
37170;BME280;23062;13.952;100.608;2023-05-23T09:29:55;1005.74;;;35.02;47.37
37170;BME280;23062;13.952;100.608;2023-05-23T09:34:28;1005.90;;;34.97;47.38
37170;BME280;23062;13.952;100.608;2023-05-23T09:39:00;1005.82;;;34.84;48.32
37170;BME280;23062;13.952;100.608;2023-05-23T09:43:33;1005.99;;;34.75;49.00
37170;BME280;23062;13.952;100.608;2023-05-23T09:48:01;1006.31;;;34.65;49.24
37170;BME280;23062;13.952;100.608;2023-05-23T09:52:40;1006.38;;;34.59;49.45
37170;BME280;23062;13.952;100.608;2023-05-23T09:57:09;1006.43;;;34.55;49.26
37170;BME280;23062;13.952;100.608;2023-05-23T10:01:35;1006.55;;;34.45;49.38
37170;BME280;23062;13.952;100.608;2023-05-23T10:06:21;1006.68;;;34.38;49.25
37170;BME280;23062;13.952;100.608;2023-05-23T10:15:07;1006.74;;;34.25;50.12
37170;BME280;23062;13.952;100.608;2023-05-23T10:19:52;1007.01;;;34.21;50.53
37170;BME280;23062;13.952;100.608;2023-05-23T10:24:17;1007.11;;;34.11;51.18
37170;BME280;23062;13.952;100.608;2023-05-23T10:28:45;1007.09;;;34.07;51.60
37170;BME280;23062;13.952;100.608;2023-05-23T10:33:12;1007.03;;;33.97;51.51
37170;BME280;23062;13.952;100.608;2023-05-23T10:37:48;1007.26;;;33.86;50.92
37170;BME280;23062;13.952;100.608;2023-05-23T10:46:57;1007.45;;;33.75;51.94
37170;BME280;23062;13.952;100.608;2023-05-23T10:51:39;1007.47;;;33.73;52.39
37170;BME280;23062;13.952;100.608;2023-05-23T10:56:10;1007.42;;;33.71;53.00
37170;BME280;23062;13.952;100.608;2023-05-23T11:00:56;1007.42;;;33.66;53.54
37170;BME280;23062;13.952;100.608;2023-05-23T11:05:29;1007.63;;;33.67;54.00
37170;BME280;23062;13.952;100.608;2023-05-23T11:10:11;1007.54;;;33.68;54.38
37170;BME280;23062;13.952;100.608;2023-05-23T11:23:52;1007.71;;;33.54;55.11
37170;BME280;23062;13.952;100.608;2023-05-23T11:28:21;1007.66;;;33.52;55.20
37170;BME280;23062;13.952;100.608;2023-05-23T11:32:54;1007.69;;;33.48;55.12
37170;BME280;23062;13.952;100.608;2023-05-23T11:37:22;1007.80;;;33.46;54.85
37170;BME280;23062;13.952;100.608;2023-05-23T11:41:59;1007.75;;;33.45;54.40
37170;BME280;23062;13.952;100.608;2023-05-23T11:46:24;1007.78;;;33.46;54.03
37170;BME280;23062;13.952;100.608;2023-05-23T11:50:52;1007.96;;;33.48;53.42
37170;BME280;23062;13.952;100.608;2023-05-23T11:55:20;1007.95;;;33.43;53.19
37170;BME280;23062;13.952;100.608;2023-05-23T11:59:47;1008.07;;;33.43;52.91
37170;BME280;23062;13.952;100.608;2023-05-23T12:04:20;1008.19;;;33.37;53.17
37170;BME280;23062;13.952;100.608;2023-05-23T12:08:53;1008.27;;;33.39;52.95
37170;BME280;23062;13.952;100.608;2023-05-23T12:13:28;1008.33;;;33.28;53.68
37170;BME280;23062;13.952;100.608;2023-05-23T12:17:56;1008.30;;;33.36;53.25
37170;BME280;23062;13.952;100.608;2023-05-23T12:22:24;1008.27;;;33.31;53.35
37170;BME280;23062;13.952;100.608;2023-05-23T12:26:55;1008.30;;;33.30;53.45
37170;BME280;23062;13.952;100.608;2023-05-23T12:31:22;1008.30;;;33.29;53.26
37170;BME280;23062;13.952;100.608;2023-05-23T12:35:48;1008.31;;;33.24;53.37
37170;BME280;23062;13.952;100.608;2023-05-23T12:40:18;1008.31;;;33.25;53.43
37170;BME280;23062;13.952;100.608;2023-05-23T12:44:44;1008.28;;;33.23;53.71
37170;BME280;23062;13.952;100.608;2023-05-23T12:49:12;1008.30;;;33.36;53.72
37170;BME280;23062;13.952;100.608;2023-05-23T12:53:41;1008.52;;;33.38;53.93
37170;BME280;23062;13.952;100.608;2023-05-23T12:58:09;1008.59;;;33.42;53.86
37170;BME280;23062;13.952;100.608;2023-05-23T13:02:42;1008.70;;;33.43;53.74
37170;BME280;23062;13.952;100.608;2023-05-23T13:07:08;1008.68;;;33.45;53.59
37170;BME280;23062;13.952;100.608;2023-05-23T13:11:39;1008.69;;;33.48;53.54
37170;BME280;23062;13.952;100.608;2023-05-23T13:16:07;1008.76;;;33.52;53.34
37170;BME280;23062;13.952;100.608;2023-05-23T13:20:35;1008.78;;;33.51;52.89
37170;BME280;23062;13.952;100.608;2023-05-23T13:25:01;1008.67;;;33.54;52.45
37170;BME280;23062;13.952;100.608;2023-05-23T13:29:33;1008.57;;;33.55;52.28
37170;BME280;23062;13.952;100.608;2023-05-23T13:34:01;1008.58;;;33.55;52.47
37170;BME280;23062;13.952;100.608;2023-05-23T13:38:27;1008.54;;;33.55;52.27
37170;BME280;23062;13.952;100.608;2023-05-23T13:42:54;1008.55;;;33.52;52.47
37170;BME280;23062;13.952;100.608;2023-05-23T13:47:20;1008.58;;;33.57;52.39
37170;BME280;23062;13.952;100.608;2023-05-23T13:51:48;1008.62;;;33.56;52.34
37170;BME280;23062;13.952;100.608;2023-05-23T13:56:16;1008.72;;;33.51;52.67
37170;BME280;23062;13.952;100.608;2023-05-23T14:00:44;1008.82;;;33.54;52.71
37170;BME280;23062;13.952;100.608;2023-05-23T14:05:11;1008.89;;;33.51;52.76
37170;BME280;23062;13.952;100.608;2023-05-23T14:09:39;1008.96;;;33.48;52.69
37170;BME280;23062;13.952;100.608;2023-05-23T14:14:12;1008.96;;;33.55;52.42
37170;BME280;23062;13.952;100.608;2023-05-23T14:18:40;1008.94;;;33.56;52.17
37170;BME280;23062;13.952;100.608;2023-05-23T14:23:07;1008.94;;;33.59;52.11
37170;BME280;23062;13.952;100.608;2023-05-23T14:27:41;1008.99;;;33.55;52.25
37170;BME280;23062;13.952;100.608;2023-05-23T14:32:15;1009.03;;;33.56;52.17
37170;BME280;23062;13.952;100.608;2023-05-23T14:36:42;1009.04;;;33.58;51.99
37170;BME280;23062;13.952;100.608;2023-05-23T14:41:17;1009.01;;;33.59;51.85
37170;BME280;23062;13.952;100.608;2023-05-23T14:45:50;1009.10;;;33.59;51.75
37170;BME280;23062;13.952;100.608;2023-05-23T14:50:16;1009.10;;;33.56;51.80
37170;BME280;23062;13.952;100.608;2023-05-23T14:54:48;1009.18;;;33.57;51.81
37170;BME280;23062;13.952;100.608;2023-05-23T14:59:15;1009.32;;;33.57;52.00
37170;BME280;23062;13.952;100.608;2023-05-23T15:03:44;1009.32;;;33.54;52.27
37170;BME280;23062;13.952;100.608;2023-05-23T15:08:11;1009.40;;;33.52;52.42
37170;BME280;23062;13.952;100.608;2023-05-23T15:12:39;1009.46;;;33.52;52.52
37170;BME280;23062;13.952;100.608;2023-05-23T15:17:06;1009.48;;;33.53;52.54
37170;BME280;23062;13.952;100.608;2023-05-23T15:21:31;1009.50;;;33.54;52.60
37170;BME280;23062;13.952;100.608;2023-05-23T15:25:58;1009.53;;;33.49;52.42
37170;BME280;23062;13.952;100.608;2023-05-23T15:30:29;1009.57;;;33.49;52.31
37170;BME280;23062;13.952;100.608;2023-05-23T15:34:54;1009.57;;;33.51;52.39
37170;BME280;23062;13.952;100.608;2023-05-23T15:39:21;1009.57;;;33.53;52.49
37170;BME280;23062;13.952;100.608;2023-05-23T15:43:48;1009.57;;;33.54;52.49
37170;BME280;23062;13.952;100.608;2023-05-23T15:48:20;1009.54;;;33.54;52.43
37170;BME280;23062;13.952;100.608;2023-05-23T15:52:45;1009.48;;;33.57;52.45
37170;BME280;23062;13.952;100.608;2023-05-23T15:57:13;1009.38;;;33.53;52.46
37170;BME280;23062;13.952;100.608;2023-05-23T16:01:46;1009.26;;;33.53;52.61
37170;BME280;23062;13.952;100.608;2023-05-23T16:06:11;1009.26;;;33.49;52.67
37170;BME280;23062;13.952;100.608;2023-05-23T16:10:38;1009.27;;;33.48;52.58
37170;BME280;23062;13.952;100.608;2023-05-23T16:15:04;1009.22;;;33.48;52.71
37170;BME280;23062;13.952;100.608;2023-05-23T16:19:30;1009.20;;;33.48;52.60
37170;BME280;23062;13.952;100.608;2023-05-23T16:23:57;1009.12;;;33.45;52.65
37170;BME280;23062;13.952;100.608;2023-05-23T16:28:23;1009.10;;;33.48;52.76
37170;BME280;23062;13.952;100.608;2023-05-23T16:32:55;1009.08;;;33.47;52.82
37170;BME280;23062;13.952;100.608;2023-05-23T16:37:30;1009.08;;;33.44;52.49
37170;BME280;23062;13.952;100.608;2023-05-23T16:41:57;1009.08;;;33.44;52.34
37170;BME280;23062;13.952;100.608;2023-05-23T16:46:23;1009.00;;;33.41;52.54
37170;BME280;23062;13.952;100.608;2023-05-23T16:50:58;1008.91;;;33.39;52.46
37170;BME280;23062;13.952;100.608;2023-05-23T16:55:23;1008.83;;;33.38;52.42
37170;BME280;23062;13.952;100.608;2023-05-23T16:59:49;1008.90;;;33.38;52.42
37170;BME280;23062;13.952;100.608;2023-05-23T17:04:15;1008.96;;;33.41;52.40
37170;BME280;23062;13.952;100.608;2023-05-23T17:08:41;1009.00;;;33.43;52.46
37170;BME280;23062;13.952;100.608;2023-05-23T17:13:12;1008.87;;;33.38;52.59
37170;BME280;23062;13.952;100.608;2023-05-23T17:17:39;1008.78;;;33.35;52.73
37170;BME280;23062;13.952;100.608;2023-05-23T17:22:05;1008.77;;;33.38;52.81
37170;BME280;23062;13.952;100.608;2023-05-23T17:26:32;1008.84;;;33.36;52.73
37170;BME280;23062;13.952;100.608;2023-05-23T17:31:05;1008.86;;;33.35;52.73
37170;BME280;23062;13.952;100.608;2023-05-23T17:35:38;1008.74;;;33.33;53.00
37170;BME280;23062;13.952;100.608;2023-05-23T17:40:04;1008.66;;;33.35;53.25
37170;BME280;23062;13.952;100.608;2023-05-23T17:44:31;1008.52;;;33.32;52.86
37170;BME280;23062;13.952;100.608;2023-05-23T17:48:57;1008.51;;;33.30;52.70
37170;BME280;23062;13.952;100.608;2023-05-23T17:53:27;1008.41;;;33.29;52.62
37170;BME280;23062;13.952;100.608;2023-05-23T17:57:54;1008.29;;;33.25;52.56
37170;BME280;23062;13.952;100.608;2023-05-23T18:02:20;1008.28;;;33.28;52.70
37170;BME280;23062;13.952;100.608;2023-05-23T18:06:46;1008.28;;;33.31;52.51
37170;BME280;23062;13.952;100.608;2023-05-23T18:11:15;1008.21;;;33.29;52.42
37170;BME280;23062;13.952;100.608;2023-05-23T18:15:41;1008.14;;;33.29;52.44
37170;BME280;23062;13.952;100.608;2023-05-23T18:20:08;1008.03;;;33.29;52.56
37170;BME280;23062;13.952;100.608;2023-05-23T18:24:34;1007.96;;;33.27;52.55
37170;BME280;23062;13.952;100.608;2023-05-23T18:29:00;1007.94;;;33.27;52.62
37170;BME280;23062;13.952;100.608;2023-05-23T18:33:34;1007.93;;;33.29;52.56
37170;BME280;23062;13.952;100.608;2023-05-23T18:38:00;1007.86;;;33.30;52.58
37170;BME280;23062;13.952;100.608;2023-05-23T18:42:30;1007.81;;;33.29;52.49
37170;BME280;23062;13.952;100.608;2023-05-23T18:46:57;1007.79;;;33.29;52.54
37170;BME280;23062;13.952;100.608;2023-05-23T18:51:25;1007.83;;;33.28;52.73
37170;BME280;23062;13.952;100.608;2023-05-23T18:55:51;1007.79;;;33.25;52.67
37170;BME280;23062;13.952;100.608;2023-05-23T19:00:17;1007.76;;;33.25;52.54
37170;BME280;23062;13.952;100.608;2023-05-23T19:04:43;1007.77;;;33.27;52.54
37170;BME280;23062;13.952;100.608;2023-05-23T19:09:12;1007.78;;;33.22;52.92
37170;BME280;23062;13.952;100.608;2023-05-23T19:13:37;1007.79;;;33.26;53.41
37170;BME280;23062;13.952;100.608;2023-05-23T19:18:07;1007.70;;;33.21;53.93
37170;BME280;23062;13.952;100.608;2023-05-23T19:22:34;1007.70;;;33.21;54.15
37170;BME280;23062;13.952;100.608;2023-05-23T19:27:07;1007.68;;;33.21;54.29
37170;BME280;23062;13.952;100.608;2023-05-23T19:31:34;1007.66;;;33.22;54.44
37170;BME280;23062;13.952;100.608;2023-05-23T19:36:10;1007.67;;;33.18;54.93
37170;BME280;23062;13.952;100.608;2023-05-23T19:40:45;1007.68;;;33.22;54.82
37170;BME280;23062;13.952;100.608;2023-05-23T19:45:13;1007.66;;;33.19;55.01
37170;BME280;23062;13.952;100.608;2023-05-23T19:49:40;1007.66;;;33.16;55.19
37170;BME280;23062;13.952;100.608;2023-05-23T19:54:13;1007.68;;;33.16;55.18
37170;BME280;23062;13.952;100.608;2023-05-23T19:58:44;1007.68;;;33.14;55.34
37170;BME280;23062;13.952;100.608;2023-05-23T20:03:18;1007.71;;;33.14;55.49
37170;BME280;23062;13.952;100.608;2023-05-23T20:07:45;1007.61;;;33.15;55.30
37170;BME280;23062;13.952;100.608;2023-05-23T20:12:11;1007.53;;;33.03;56.06
37170;BME280;23062;13.952;100.608;2023-05-23T20:16:36;1007.51;;;32.98;56.22
37170;BME280;23062;13.952;100.608;2023-05-23T20:21:03;1007.61;;;32.96;56.36
37170;BME280;23062;13.952;100.608;2023-05-23T20:25:29;1007.70;;;32.87;56.67
37170;BME280;23062;13.952;100.608;2023-05-23T20:29:57;1007.72;;;32.78;57.07
37170;BME280;23062;13.952;100.608;2023-05-23T20:34:31;1007.70;;;32.70;57.46
37170;BME280;23062;13.952;100.608;2023-05-23T20:39:04;1007.75;;;32.67;57.73
37170;BME280;23062;13.952;100.608;2023-05-23T20:43:32;1007.75;;;32.60;58.07
37170;BME280;23062;13.952;100.608;2023-05-23T20:48:05;1007.69;;;32.54;58.41
37170;BME280;23062;13.952;100.608;2023-05-23T20:52:31;1007.72;;;32.48;58.76
37170;BME280;23062;13.952;100.608;2023-05-23T20:56:57;1007.79;;;32.50;58.79
37170;BME280;23062;13.952;100.608;2023-05-23T21:01:31;1007.89;;;32.56;58.69
37170;BME280;23062;13.952;100.608;2023-05-23T21:05:56;1007.79;;;32.46;59.02
37170;BME280;23062;13.952;100.608;2023-05-23T21:10:22;1007.75;;;32.39;59.20
37170;BME280;23062;13.952;100.608;2023-05-23T21:14:47;1007.72;;;32.36;59.43
37170;BME280;23062;13.952;100.608;2023-05-23T21:19:13;1007.69;;;32.29;59.69
37170;BME280;23062;13.952;100.608;2023-05-23T21:23:38;1007.72;;;32.41;59.43
37170;BME280;23062;13.952;100.608;2023-05-23T21:28:12;1007.77;;;32.49;59.12
37170;BME280;23062;13.952;100.608;2023-05-23T21:32:46;1007.77;;;32.37;59.75
37170;BME280;23062;13.952;100.608;2023-05-23T21:37:21;1007.76;;;32.30;59.98
37170;BME280;23062;13.952;100.608;2023-05-23T21:41:46;1007.75;;;32.32;59.97
37170;BME280;23062;13.952;100.608;2023-05-23T21:46:13;1007.79;;;32.34;60.11
37170;BME280;23062;13.952;100.608;2023-05-23T21:50:46;1007.83;;;32.33;60.24
37170;BME280;23062;13.952;100.608;2023-05-23T21:55:13;1007.79;;;32.28;60.34
37170;BME280;23062;13.952;100.608;2023-05-23T21:59:43;1007.78;;;32.25;60.83
37170;BME280;23062;13.952;100.608;2023-05-23T22:04:12;1007.84;;;32.20;61.11
37170;BME280;23062;13.952;100.608;2023-05-23T22:08:47;1007.83;;;32.16;61.26
37170;BME280;23062;13.952;100.608;2023-05-23T22:13:21;1007.83;;;32.26;61.23
37170;BME280;23062;13.952;100.608;2023-05-23T22:17:47;1007.90;;;32.28;61.05
37170;BME280;23062;13.952;100.608;2023-05-23T22:22:13;1007.87;;;32.25;61.05
37170;BME280;23062;13.952;100.608;2023-05-23T22:26:42;1007.91;;;32.26;61.04
37170;BME280;23062;13.952;100.608;2023-05-23T22:31:14;1007.94;;;32.24;61.72
37170;BME280;23062;13.952;100.608;2023-05-23T22:35:48;1008.02;;;32.36;61.26
37170;BME280;23062;13.952;100.608;2023-05-23T22:40:21;1008.05;;;32.42;60.97
37170;BME280;23062;13.952;100.608;2023-05-23T22:44:47;1008.07;;;32.40;61.05
37170;BME280;23062;13.952;100.608;2023-05-23T22:49:16;1008.14;;;32.41;62.27
37170;BME280;23062;13.952;100.608;2023-05-23T22:53:50;1008.16;;;32.31;63.10
37170;BME280;23062;13.952;100.608;2023-05-23T22:58:24;1008.20;;;32.25;62.52
37170;BME280;23062;13.952;100.608;2023-05-23T23:02:58;1008.18;;;32.20;62.80
37170;BME280;23062;13.952;100.608;2023-05-23T23:07:26;1008.29;;;32.18;62.77
37170;BME280;23062;13.952;100.608;2023-05-23T23:11:53;1008.37;;;32.24;62.35
37170;BME280;23062;13.952;100.608;2023-05-23T23:16:18;1008.40;;;32.13;62.50
37170;BME280;23062;13.952;100.608;2023-05-23T23:20:45;1008.48;;;32.10;62.55
37170;BME280;23062;13.952;100.608;2023-05-23T23:25:11;1008.49;;;32.04;62.90
37170;BME280;23062;13.952;100.608;2023-05-23T23:29:37;1008.62;;;32.13;63.14
37170;BME280;23062;13.952;100.608;2023-05-23T23:34:05;1008.64;;;32.12;63.08
37170;BME280;23062;13.952;100.608;2023-05-23T23:38:32;1008.68;;;32.18;62.94
37170;BME280;23062;13.952;100.608;2023-05-23T23:42:58;1008.69;;;32.07;62.93
37170;BME280;23062;13.952;100.608;2023-05-23T23:47:24;1008.74;;;32.06;62.81
37170;BME280;23062;13.952;100.608;2023-05-23T23:51:57;1008.75;;;32.04;63.06
37170;BME280;23062;13.952;100.608;2023-05-23T23:56:23;1008.82;;;32.06;63.00
